sensor_id;sensor_type;location;lat;lon;timestamp;P1;durP1;ratioP1;P2;durP2;ratioP2
13441;SDS011;6793;55.662;13.114;2024-01-15T00:00:59;0.80;;;0.80;;
13441;SDS011;6793;55.662;13.114;2024-01-15T00:03:26;0.80;;;0.80;;
13441;SDS011;6793;55.662;13.114;2024-01-15T00:05:53;0.90;;;0.90;;
13441;SDS011;6793;55.662;13.114;2024-01-15T00:08:21;0.90;;;0.90;;
13441;SDS011;6793;55.662;13.114;2024-01-15T00:10:48;0.90;;;0.90;;
13441;SDS011;6793;55.662;13.114;2024-01-15T00:13:15;0.80;;;0.80;;
13441;SDS011;6793;55.662;13.114;2024-01-15T00:15:42;0.90;;;0.90;;
13441;SDS011;6793;55.662;13.114;2024-01-15T00:18:09;0.80;;;0.80;;
13441;SDS011;6793;55.662;13.114;2024-01-15T00:20:36;0.80;;;0.80;;
13441;SDS011;6793;55.662;13.114;2024-01-15T00:23:03;0.80;;;0.80;;
13441;SDS011;6793;55.662;13.114;2024-01-15T00:25:32;0.70;;;0.70;;
13441;SDS011;6793;55.662;13.114;2024-01-15T00:27:59;0.73;;;0.73;;
13441;SDS011;6793;55.662;13.114;2024-01-15T00:30:26;0.80;;;0.80;;
13441;SDS011;6793;55.662;13.114;2024-01-15T00:32:53;0.80;;;0.80;;
13441;SDS011;6793;55.662;13.114;2024-01-15T00:35:20;0.70;;;0.70;;
13441;SDS011;6793;55.662;13.114;2024-01-15T00:37:47;0.70;;;0.70;;
13441;SDS011;6793;55.662;13.114;2024-01-15T00:40:14;0.60;;;0.60;;
13441;SDS011;6793;55.662;13.114;2024-01-15T00:42:42;0.70;;;0.70;;
13441;SDS011;6793;55.662;13.114;2024-01-15T00:45:09;0.70;;;0.70;;
13441;SDS011;6793;55.662;13.114;2024-01-15T00:47:36;0.83;;;0.83;;
13441;SDS011;6793;55.662;13.114;2024-01-15T00:50:04;0.60;;;0.60;;
13441;SDS011;6793;55.662;13.114;2024-01-15T00:52:31;0.67;;;0.67;;
13441;SDS011;6793;55.662;13.114;2024-01-15T00:54:58;0.70;;;0.70;;
13441;SDS011;6793;55.662;13.114;2024-01-15T00:57:25;0.63;;;0.63;;
13441;SDS011;6793;55.662;13.114;2024-01-15T00:59:53;0.70;;;0.70;;
13441;SDS011;6793;55.662;13.114;2024-01-15T01:02:20;0.60;;;0.60;;
13441;SDS011;6793;55.662;13.114;2024-01-15T01:04:47;0.70;;;0.70;;
13441;SDS011;6793;55.662;13.114;2024-01-15T01:07:14;0.70;;;0.70;;
13441;SDS011;6793;55.662;13.114;2024-01-15T01:09:41;0.70;;;0.70;;
13441;SDS011;6793;55.662;13.114;2024-01-15T01:12:09;0.70;;;0.70;;
13441;SDS011;6793;55.662;13.114;2024-01-15T01:14:36;0.70;;;0.70;;
13441;SDS011;6793;55.662;13.114;2024-01-15T01:17:04;0.70;;;0.70;;
13441;SDS011;6793;55.662;13.114;2024-01-15T01:19:31;0.80;;;0.80;;
13441;SDS011;6793;55.662;13.114;2024-01-15T01:21:58;0.70;;;0.70;;
13441;SDS011;6793;55.662;13.114;2024-01-15T01:24:25;0.80;;;0.80;;
13441;SDS011;6793;55.662;13.114;2024-01-15T01:26:52;0.70;;;0.70;;
13441;SDS011;6793;55.662;13.114;2024-01-15T01:29:19;0.70;;;0.70;;
13441;SDS011;6793;55.662;13.114;2024-01-15T01:31:47;0.80;;;0.80;;
13441;SDS011;6793;55.662;13.114;2024-01-15T01:34:16;0.70;;;0.70;;
13441;SDS011;6793;55.662;13.114;2024-01-15T01:36:43;0.70;;;0.70;;
13441;SDS011;6793;55.662;13.114;2024-01-15T01:39:10;0.80;;;0.80;;
13441;SDS011;6793;55.662;13.114;2024-01-15T01:41:38;0.80;;;0.80;;
13441;SDS011;6793;55.662;13.114;2024-01-15T01:44:05;0.70;;;0.70;;
13441;SDS011;6793;55.662;13.114;2024-01-15T01:46:32;0.80;;;0.80;;
13441;SDS011;6793;55.662;13.114;2024-01-15T01:49:04;0.80;;;0.80;;
13441;SDS011;6793;55.662;13.114;2024-01-15T01:51:32;0.87;;;0.87;;
13441;SDS011;6793;55.662;13.114;2024-01-15T01:54:00;0.80;;;0.80;;
13441;SDS011;6793;55.662;13.114;2024-01-15T01:56:27;0.80;;;0.80;;
13441;SDS011;6793;55.662;13.114;2024-01-15T01:58:54;0.80;;;0.80;;
13441;SDS011;6793;55.662;13.114;2024-01-15T02:01:21;0.80;;;0.80;;
13441;SDS011;6793;55.662;13.114;2024-01-15T02:03:48;0.80;;;0.80;;
13441;SDS011;6793;55.662;13.114;2024-01-15T02:06:15;0.80;;;0.80;;
13441;SDS011;6793;55.662;13.114;2024-01-15T02:08:44;0.80;;;0.80;;
13441;SDS011;6793;55.662;13.114;2024-01-15T02:11:11;0.83;;;0.83;;
13441;SDS011;6793;55.662;13.114;2024-01-15T02:13:38;0.70;;;0.70;;
13441;SDS011;6793;55.662;13.114;2024-01-15T02:16:05;0.90;;;0.90;;
13441;SDS011;6793;55.662;13.114;2024-01-15T02:18:39;0.70;;;0.70;;
13441;SDS011;6793;55.662;13.114;2024-01-15T02:21:06;0.80;;;0.80;;
13441;SDS011;6793;55.662;13.114;2024-01-15T02:23:35;0.80;;;0.80;;
13441;SDS011;6793;55.662;13.114;2024-01-15T02:26:02;0.80;;;0.80;;
13441;SDS011;6793;55.662;13.114;2024-01-15T02:28:29;0.90;;;0.90;;
13441;SDS011;6793;55.662;13.114;2024-01-15T02:30:56;0.80;;;0.80;;
13441;SDS011;6793;55.662;13.114;2024-01-15T02:33:23;0.80;;;0.80;;
13441;SDS011;6793;55.662;13.114;2024-01-15T02:35:51;0.80;;;0.80;;
13441;SDS011;6793;55.662;13.114;2024-01-15T02:38:18;0.70;;;0.70;;
13441;SDS011;6793;55.662;13.114;2024-01-15T02:40:46;0.70;;;0.70;;
13441;SDS011;6793;55.662;13.114;2024-01-15T02:43:13;0.80;;;0.80;;
13441;SDS011;6793;55.662;13.114;2024-01-15T02:45:40;0.80;;;0.80;;
13441;SDS011;6793;55.662;13.114;2024-01-15T02:48:07;0.90;;;0.90;;
13441;SDS011;6793;55.662;13.114;2024-01-15T02:50:34;0.90;;;0.90;;
13441;SDS011;6793;55.662;13.114;2024-01-15T02:53:01;0.80;;;0.80;;
13441;SDS011;6793;55.662;13.114;2024-01-15T02:55:29;0.80;;;0.80;;
13441;SDS011;6793;55.662;13.114;2024-01-15T02:57:57;0.90;;;0.90;;
13441;SDS011;6793;55.662;13.114;2024-01-15T03:00:24;0.80;;;0.80;;
13441;SDS011;6793;55.662;13.114;2024-01-15T03:02:51;0.90;;;0.90;;
13441;SDS011;6793;55.662;13.114;2024-01-15T03:05:18;0.80;;;0.80;;
13441;SDS011;6793;55.662;13.114;2024-01-15T03:07:45;0.80;;;0.80;;
13441;SDS011;6793;55.662;13.114;2024-01-15T03:10:12;0.90;;;0.90;;
13441;SDS011;6793;55.662;13.114;2024-01-15T03:12:39;0.90;;;0.90;;
13441;SDS011;6793;55.662;13.114;2024-01-15T03:15:08;0.90;;;0.90;;
13441;SDS011;6793;55.662;13.114;2024-01-15T03:17:35;0.80;;;0.80;;
13441;SDS011;6793;55.662;13.114;2024-01-15T03:20:02;0.80;;;0.80;;
13441;SDS011;6793;55.662;13.114;2024-01-15T03:22:29;0.90;;;0.90;;
13441;SDS011;6793;55.662;13.114;2024-01-15T03:24:56;0.83;;;0.83;;
13441;SDS011;6793;55.662;13.114;2024-01-15T03:27:23;0.80;;;0.80;;
13441;SDS011;6793;55.662;13.114;2024-01-15T03:29:51;0.80;;;0.80;;
13441;SDS011;6793;55.662;13.114;2024-01-15T03:32:19;0.80;;;0.80;;
13441;SDS011;6793;55.662;13.114;2024-01-15T03:34:46;0.80;;;0.80;;
13441;SDS011;6793;55.662;13.114;2024-01-15T03:37:13;1.00;;;1.00;;
13441;SDS011;6793;55.662;13.114;2024-01-15T03:39:40;0.90;;;0.90;;
13441;SDS011;6793;55.662;13.114;2024-01-15T03:42:07;0.80;;;0.80;;
13441;SDS011;6793;55.662;13.114;2024-01-15T03:44:34;0.80;;;0.80;;
13441;SDS011;6793;55.662;13.114;2024-01-15T03:47:01;0.90;;;0.90;;
13441;SDS011;6793;55.662;13.114;2024-01-15T03:49:30;0.80;;;0.80;;
13441;SDS011;6793;55.662;13.114;2024-01-15T03:51:57;0.90;;;0.90;;
13441;SDS011;6793;55.662;13.114;2024-01-15T03:54:24;0.80;;;0.80;;
13441;SDS011;6793;55.662;13.114;2024-01-15T03:56:51;0.90;;;0.90;;
13441;SDS011;6793;55.662;13.114;2024-01-15T03:59:18;0.90;;;0.90;;
13441;SDS011;6793;55.662;13.114;2024-01-15T04:01:48;0.80;;;0.80;;
13441;SDS011;6793;55.662;13.114;2024-01-15T04:04:15;0.90;;;0.90;;
13441;SDS011;6793;55.662;13.114;2024-01-15T04:06:44;0.80;;;0.80;;
13441;SDS011;6793;55.662;13.114;2024-01-15T04:09:14;0.90;;;0.90;;
13441;SDS011;6793;55.662;13.114;2024-01-15T04:11:41;0.80;;;0.80;;
13441;SDS011;6793;55.662;13.114;2024-01-15T04:14:08;0.80;;;0.80;;
13441;SDS011;6793;55.662;13.114;2024-01-15T04:16:35;0.90;;;0.90;;
13441;SDS011;6793;55.662;13.114;2024-01-15T04:19:02;1.00;;;1.00;;
13441;SDS011;6793;55.662;13.114;2024-01-15T04:21:29;0.90;;;0.90;;
13441;SDS011;6793;55.662;13.114;2024-01-15T04:23:57;0.90;;;0.90;;
13441;SDS011;6793;55.662;13.114;2024-01-15T04:26:24;0.90;;;0.90;;
13441;SDS011;6793;55.662;13.114;2024-01-15T04:28:51;1.00;;;1.00;;
13441;SDS011;6793;55.662;13.114;2024-01-15T04:31:22;1.00;;;1.00;;
13441;SDS011;6793;55.662;13.114;2024-01-15T04:33:49;1.00;;;1.00;;
13441;SDS011;6793;55.662;13.114;2024-01-15T04:36:16;0.97;;;0.97;;
13441;SDS011;6793;55.662;13.114;2024-01-15T04:38:43;1.00;;;1.00;;
13441;SDS011;6793;55.662;13.114;2024-01-15T04:41:12;1.00;;;1.00;;
13441;SDS011;6793;55.662;13.114;2024-01-15T04:43:39;1.00;;;1.00;;
13441;SDS011;6793;55.662;13.114;2024-01-15T04:46:06;0.90;;;0.90;;
13441;SDS011;6793;55.662;13.114;2024-01-15T04:48:33;0.90;;;0.90;;
13441;SDS011;6793;55.662;13.114;2024-01-15T04:51:00;0.90;;;0.90;;
13441;SDS011;6793;55.662;13.114;2024-01-15T04:53:30;0.97;;;0.97;;
13441;SDS011;6793;55.662;13.114;2024-01-15T04:55:57;1.00;;;1.00;;
13441;SDS011;6793;55.662;13.114;2024-01-15T04:58:25;1.00;;;1.00;;
13441;SDS011;6793;55.662;13.114;2024-01-15T05:00:52;0.90;;;0.90;;
13441;SDS011;6793;55.662;13.114;2024-01-15T05:03:20;0.80;;;0.80;;
13441;SDS011;6793;55.662;13.114;2024-01-15T05:05:47;1.00;;;1.00;;
13441;SDS011;6793;55.662;13.114;2024-01-15T05:08:14;1.03;;;1.03;;
13441;SDS011;6793;55.662;13.114;2024-01-15T05:10:41;1.00;;;1.00;;
13441;SDS011;6793;55.662;13.114;2024-01-15T05:13:08;1.00;;;1.00;;
13441;SDS011;6793;55.662;13.114;2024-01-15T05:15:36;1.00;;;1.00;;
13441;SDS011;6793;55.662;13.114;2024-01-15T05:18:03;1.00;;;1.00;;
13441;SDS011;6793;55.662;13.114;2024-01-15T05:20:31;1.00;;;1.00;;
13441;SDS011;6793;55.662;13.114;2024-01-15T05:22:58;1.00;;;1.00;;
13441;SDS011;6793;55.662;13.114;2024-01-15T05:25:25;0.90;;;0.90;;
13441;SDS011;6793;55.662;13.114;2024-01-15T05:27:52;1.00;;;1.00;;
13441;SDS011;6793;55.662;13.114;2024-01-15T05:30:19;1.07;;;1.07;;
13441;SDS011;6793;55.662;13.114;2024-01-15T05:32:47;1.00;;;1.00;;
13441;SDS011;6793;55.662;13.114;2024-01-15T05:35:15;0.90;;;0.90;;
13441;SDS011;6793;55.662;13.114;2024-01-15T05:37:43;1.00;;;1.00;;
13441;SDS011;6793;55.662;13.114;2024-01-15T05:40:10;0.90;;;0.90;;
13441;SDS011;6793;55.662;13.114;2024-01-15T05:42:38;1.00;;;1.00;;
13441;SDS011;6793;55.662;13.114;2024-01-15T05:45:05;0.90;;;0.90;;
13441;SDS011;6793;55.662;13.114;2024-01-15T05:47:33;0.90;;;0.90;;
13441;SDS011;6793;55.662;13.114;2024-01-15T05:50:01;1.00;;;1.00;;
13441;SDS011;6793;55.662;13.114;2024-01-15T05:52:28;0.90;;;0.90;;
13441;SDS011;6793;55.662;13.114;2024-01-15T05:54:55;1.00;;;1.00;;
13441;SDS011;6793;55.662;13.114;2024-01-15T05:57:22;1.00;;;1.00;;
13441;SDS011;6793;55.662;13.114;2024-01-15T05:59:49;0.90;;;0.90;;
13441;SDS011;6793;55.662;13.114;2024-01-15T06:02:15;0.90;;;0.90;;
13441;SDS011;6793;55.662;13.114;2024-01-15T06:04:42;0.90;;;0.90;;
13441;SDS011;6793;55.662;13.114;2024-01-15T06:07:11;0.90;;;0.90;;
13441;SDS011;6793;55.662;13.114;2024-01-15T06:09:38;0.90;;;0.90;;
13441;SDS011;6793;55.662;13.114;2024-01-15T06:12:06;0.90;;;0.90;;
13441;SDS011;6793;55.662;13.114;2024-01-15T06:14:33;0.93;;;0.93;;
13441;SDS011;6793;55.662;13.114;2024-01-15T06:17:00;1.00;;;1.00;;
13441;SDS011;6793;55.662;13.114;2024-01-15T06:19:27;1.00;;;1.00;;
13441;SDS011;6793;55.662;13.114;2024-01-15T06:21:54;1.00;;;1.00;;
13441;SDS011;6793;55.662;13.114;2024-01-15T06:24:23;1.00;;;1.00;;
13441;SDS011;6793;55.662;13.114;2024-01-15T06:26:50;1.00;;;1.00;;
13441;SDS011;6793;55.662;13.114;2024-01-15T06:29:17;1.00;;;1.00;;
13441;SDS011;6793;55.662;13.114;2024-01-15T06:31:44;1.10;;;1.10;;
13441;SDS011;6793;55.662;13.114;2024-01-15T06:34:11;0.90;;;0.90;;
13441;SDS011;6793;55.662;13.114;2024-01-15T06:36:38;0.90;;;0.90;;
13441;SDS011;6793;55.662;13.114;2024-01-15T06:39:05;0.93;;;0.93;;
13441;SDS011;6793;55.662;13.114;2024-01-15T06:41:33;0.90;;;0.90;;
13441;SDS011;6793;55.662;13.114;2024-01-15T06:44:02;1.00;;;1.00;;
13441;SDS011;6793;55.662;13.114;2024-01-15T06:46:29;0.90;;;0.90;;
13441;SDS011;6793;55.662;13.114;2024-01-15T06:48:59;0.90;;;0.90;;
13441;SDS011;6793;55.662;13.114;2024-01-15T06:51:26;1.10;;;1.10;;
13441;SDS011;6793;55.662;13.114;2024-01-15T06:53:53;1.10;;;1.10;;
13441;SDS011;6793;55.662;13.114;2024-01-15T06:56:20;1.00;;;1.00;;
13441;SDS011;6793;55.662;13.114;2024-01-15T06:58:49;1.00;;;1.00;;
13441;SDS011;6793;55.662;13.114;2024-01-15T07:01:16;1.00;;;1.00;;
13441;SDS011;6793;55.662;13.114;2024-01-15T07:03:43;1.00;;;1.00;;
13441;SDS011;6793;55.662;13.114;2024-01-15T07:06:10;1.07;;;1.07;;
13441;SDS011;6793;55.662;13.114;2024-01-15T07:08:37;1.10;;;1.10;;
13441;SDS011;6793;55.662;13.114;2024-01-15T07:11:04;1.00;;;1.00;;
13441;SDS011;6793;55.662;13.114;2024-01-15T07:13:32;1.00;;;1.00;;
13441;SDS011;6793;55.662;13.114;2024-01-15T07:16:00;1.00;;;1.00;;
13441;SDS011;6793;55.662;13.114;2024-01-15T07:18:27;1.10;;;1.10;;
13441;SDS011;6793;55.662;13.114;2024-01-15T07:20:54;1.00;;;1.00;;
13441;SDS011;6793;55.662;13.114;2024-01-15T07:23:21;1.00;;;1.00;;
13441;SDS011;6793;55.662;13.114;2024-01-15T07:25:48;1.07;;;1.07;;
13441;SDS011;6793;55.662;13.114;2024-01-15T07:28:15;0.80;;;0.80;;
13441;SDS011;6793;55.662;13.114;2024-01-15T07:30:42;0.90;;;0.90;;
13441;SDS011;6793;55.662;13.114;2024-01-15T07:33:11;1.00;;;1.00;;
13441;SDS011;6793;55.662;13.114;2024-01-15T07:35:38;1.00;;;1.00;;
13441;SDS011;6793;55.662;13.114;2024-01-15T07:38:05;0.90;;;0.90;;
13441;SDS011;6793;55.662;13.114;2024-01-15T07:40:32;1.00;;;1.00;;
13441;SDS011;6793;55.662;13.114;2024-01-15T07:42:59;1.10;;;1.10;;
13441;SDS011;6793;55.662;13.114;2024-01-15T07:45:26;1.10;;;1.10;;
13441;SDS011;6793;55.662;13.114;2024-01-15T07:47:53;1.00;;;1.00;;
13441;SDS011;6793;55.662;13.114;2024-01-15T07:50:22;1.10;;;1.10;;
13441;SDS011;6793;55.662;13.114;2024-01-15T07:52:49;1.00;;;1.00;;
13441;SDS011;6793;55.662;13.114;2024-01-15T07:55:18;1.00;;;1.00;;
13441;SDS011;6793;55.662;13.114;2024-01-15T07:57:45;1.00;;;1.00;;
13441;SDS011;6793;55.662;13.114;2024-01-15T08:00:12;0.90;;;0.90;;
13441;SDS011;6793;55.662;13.114;2024-01-15T08:02:39;0.90;;;0.90;;
13441;SDS011;6793;55.662;13.114;2024-01-15T08:05:06;0.90;;;0.90;;
13441;SDS011;6793;55.662;13.114;2024-01-15T08:07:35;0.90;;;0.90;;
13441;SDS011;6793;55.662;13.114;2024-01-15T08:10:02;0.80;;;0.80;;
13441;SDS011;6793;55.662;13.114;2024-01-15T08:12:29;0.83;;;0.83;;
13441;SDS011;6793;55.662;13.114;2024-01-15T08:14:56;0.80;;;0.80;;
13441;SDS011;6793;55.662;13.114;2024-01-15T08:17:23;0.80;;;0.80;;
13441;SDS011;6793;55.662;13.114;2024-01-15T08:19:53;1.00;;;1.00;;
13441;SDS011;6793;55.662;13.114;2024-01-15T08:22:21;1.00;;;1.00;;
13441;SDS011;6793;55.662;13.114;2024-01-15T08:24:50;1.00;;;1.00;;
13441;SDS011;6793;55.662;13.114;2024-01-15T08:27:18;1.00;;;1.00;;
13441;SDS011;6793;55.662;13.114;2024-01-15T08:29:45;1.07;;;1.07;;
13441;SDS011;6793;55.662;13.114;2024-01-15T08:32:12;1.10;;;1.10;;
13441;SDS011;6793;55.662;13.114;2024-01-15T08:34:40;1.07;;;1.07;;
13441;SDS011;6793;55.662;13.114;2024-01-15T08:37:07;1.00;;;1.00;;
13441;SDS011;6793;55.662;13.114;2024-01-15T08:39:34;1.10;;;1.10;;
13441;SDS011;6793;55.662;13.114;2024-01-15T08:42:05;1.10;;;1.10;;
13441;SDS011;6793;55.662;13.114;2024-01-15T08:44:32;1.20;;;1.20;;
13441;SDS011;6793;55.662;13.114;2024-01-15T08:46:59;1.17;;;1.17;;
13441;SDS011;6793;55.662;13.114;2024-01-15T08:49:28;1.00;;;1.00;;
13441;SDS011;6793;55.662;13.114;2024-01-15T08:51:55;1.00;;;1.00;;
13441;SDS011;6793;55.662;13.114;2024-01-15T08:54:22;1.20;;;1.20;;
13441;SDS011;6793;55.662;13.114;2024-01-15T08:56:49;1.00;;;1.00;;
13441;SDS011;6793;55.662;13.114;2024-01-15T08:59:17;1.10;;;1.10;;
13441;SDS011;6793;55.662;13.114;2024-01-15T09:01:49;1.13;;;1.13;;
13441;SDS011;6793;55.662;13.114;2024-01-15T09:04:16;1.10;;;1.10;;
13441;SDS011;6793;55.662;13.114;2024-01-15T09:06:44;1.00;;;1.00;;
13441;SDS011;6793;55.662;13.114;2024-01-15T09:09:11;1.10;;;1.10;;
13441;SDS011;6793;55.662;13.114;2024-01-15T09:11:39;1.10;;;1.10;;
13441;SDS011;6793;55.662;13.114;2024-01-15T09:14:06;1.10;;;1.10;;
13441;SDS011;6793;55.662;13.114;2024-01-15T09:16:35;1.03;;;1.03;;
13441;SDS011;6793;55.662;13.114;2024-01-15T09:19:02;1.03;;;1.03;;
13441;SDS011;6793;55.662;13.114;2024-01-15T09:21:29;1.00;;;1.00;;
13441;SDS011;6793;55.662;13.114;2024-01-15T09:23:57;1.00;;;1.00;;
13441;SDS011;6793;55.662;13.114;2024-01-15T09:26:24;1.00;;;1.00;;
13441;SDS011;6793;55.662;13.114;2024-01-15T09:28:51;1.07;;;1.07;;
13441;SDS011;6793;55.662;13.114;2024-01-15T09:31:18;1.00;;;1.00;;
13441;SDS011;6793;55.662;13.114;2024-01-15T09:33:47;0.90;;;0.90;;
13441;SDS011;6793;55.662;13.114;2024-01-15T09:36:14;0.90;;;0.90;;
13441;SDS011;6793;55.662;13.114;2024-01-15T09:38:41;0.90;;;0.90;;
13441;SDS011;6793;55.662;13.114;2024-01-15T09:41:08;0.90;;;0.90;;
13441;SDS011;6793;55.662;13.114;2024-01-15T09:43:35;1.10;;;1.10;;
13441;SDS011;6793;55.662;13.114;2024-01-15T09:46:03;1.00;;;1.00;;
13441;SDS011;6793;55.662;13.114;2024-01-15T09:48:30;1.10;;;1.10;;
13441;SDS011;6793;55.662;13.114;2024-01-15T09:51:00;1.20;;;1.20;;
13441;SDS011;6793;55.662;13.114;2024-01-15T09:53:27;1.30;;;1.30;;
13441;SDS011;6793;55.662;13.114;2024-01-15T09:55:55;1.30;;;1.30;;
13441;SDS011;6793;55.662;13.114;2024-01-15T09:58:22;1.40;;;1.40;;
13441;SDS011;6793;55.662;13.114;2024-01-15T10:00:49;1.30;;;1.30;;
13441;SDS011;6793;55.662;13.114;2024-01-15T10:03:17;1.47;;;1.47;;
13441;SDS011;6793;55.662;13.114;2024-01-15T10:05:44;1.50;;;1.50;;
13441;SDS011;6793;55.662;13.114;2024-01-15T10:08:12;1.60;;;1.60;;
13441;SDS011;6793;55.662;13.114;2024-01-15T10:10:40;1.70;;;1.70;;
13441;SDS011;6793;55.662;13.114;2024-01-15T10:13:07;1.70;;;1.70;;
13441;SDS011;6793;55.662;13.114;2024-01-15T10:15:34;1.80;;;1.80;;
13441;SDS011;6793;55.662;13.114;2024-01-15T10:18:03;1.93;;;1.93;;
13441;SDS011;6793;55.662;13.114;2024-01-15T10:20:31;1.90;;;1.90;;
13441;SDS011;6793;55.662;13.114;2024-01-15T10:22:58;2.00;;;2.00;;
13441;SDS011;6793;55.662;13.114;2024-01-15T10:25:27;2.03;;;2.03;;
13441;SDS011;6793;55.662;13.114;2024-01-15T10:27:58;2.07;;;2.07;;
13441;SDS011;6793;55.662;13.114;2024-01-15T10:30:26;2.10;;;2.10;;
13441;SDS011;6793;55.662;13.114;2024-01-15T10:32:57;2.30;;;2.30;;
13441;SDS011;6793;55.662;13.114;2024-01-15T10:35:26;2.30;;;2.30;;
13441;SDS011;6793;55.662;13.114;2024-01-15T10:37:53;2.40;;;2.40;;
13441;SDS011;6793;55.662;13.114;2024-01-15T10:40:20;2.20;;;2.20;;
13441;SDS011;6793;55.662;13.114;2024-01-15T10:42:49;2.50;;;2.50;;
13441;SDS011;6793;55.662;13.114;2024-01-15T10:45:16;2.40;;;2.40;;
13441;SDS011;6793;55.662;13.114;2024-01-15T10:47:43;2.50;;;2.50;;
13441;SDS011;6793;55.662;13.114;2024-01-15T10:50:11;2.60;;;2.60;;
13441;SDS011;6793;55.662;13.114;2024-01-15T10:52:38;2.70;;;2.70;;
13441;SDS011;6793;55.662;13.114;2024-01-15T10:55:06;2.80;;;2.80;;
13441;SDS011;6793;55.662;13.114;2024-01-15T10:57:34;2.53;;;2.53;;
13441;SDS011;6793;55.662;13.114;2024-01-15T11:00:03;2.63;;;2.63;;
13441;SDS011;6793;55.662;13.114;2024-01-15T11:02:31;2.80;;;2.80;;
13441;SDS011;6793;55.662;13.114;2024-01-15T11:04:58;2.70;;;2.70;;
13441;SDS011;6793;55.662;13.114;2024-01-15T11:07:26;2.73;;;2.73;;
13441;SDS011;6793;55.662;13.114;2024-01-15T11:09:53;3.00;;;3.00;;
13441;SDS011;6793;55.662;13.114;2024-01-15T11:12:20;2.70;;;2.70;;
13441;SDS011;6793;55.662;13.114;2024-01-15T11:14:47;2.50;;;2.50;;
13441;SDS011;6793;55.662;13.114;2024-01-15T11:17:16;2.50;;;2.50;;
13441;SDS011;6793;55.662;13.114;2024-01-15T11:19:44;2.70;;;2.70;;
13441;SDS011;6793;55.662;13.114;2024-01-15T11:24:53;2.60;;;2.60;;
13441;SDS011;6793;55.662;13.114;2024-01-15T11:27:26;2.77;;;2.77;;
13441;SDS011;6793;55.662;13.114;2024-01-15T11:30:07;3.00;;;3.00;;
13441;SDS011;6793;55.662;13.114;2024-01-15T11:32:37;3.30;;;3.20;;
13441;SDS011;6793;55.662;13.114;2024-01-15T11:35:06;2.90;;;2.90;;
13441;SDS011;6793;55.662;13.114;2024-01-15T11:40:17;3.00;;;3.00;;
13441;SDS011;6793;55.662;13.114;2024-01-15T11:42:44;2.90;;;2.90;;
13441;SDS011;6793;55.662;13.114;2024-01-15T11:45:12;2.63;;;2.63;;
13441;SDS011;6793;55.662;13.114;2024-01-15T11:47:53;2.80;;;2.80;;
13441;SDS011;6793;55.662;13.114;2024-01-15T11:50:26;2.80;;;2.80;;
13441;SDS011;6793;55.662;13.114;2024-01-15T11:52:56;2.83;;;2.83;;
13441;SDS011;6793;55.662;13.114;2024-01-15T11:55:25;3.30;;;3.20;;
13441;SDS011;6793;55.662;13.114;2024-01-15T11:57:54;2.80;;;2.80;;
13441;SDS011;6793;55.662;13.114;2024-01-15T12:00:21;2.90;;;2.90;;
13441;SDS011;6793;55.662;13.114;2024-01-15T12:02:49;3.00;;;3.00;;
13441;SDS011;6793;55.662;13.114;2024-01-15T12:05:18;3.30;;;3.20;;
13441;SDS011;6793;55.662;13.114;2024-01-15T12:07:46;3.30;;;3.20;;
13441;SDS011;6793;55.662;13.114;2024-01-15T12:10:16;3.30;;;3.20;;
13441;SDS011;6793;55.662;13.114;2024-01-15T12:12:47;3.27;;;3.17;;
13441;SDS011;6793;55.662;13.114;2024-01-15T12:15:15;3.53;;;3.43;;
13441;SDS011;6793;55.662;13.114;2024-01-15T12:17:43;3.40;;;3.30;;
13441;SDS011;6793;55.662;13.114;2024-01-15T12:20:10;3.40;;;3.30;;
13441;SDS011;6793;55.662;13.114;2024-01-15T12:22:39;3.50;;;3.40;;
13441;SDS011;6793;55.662;13.114;2024-01-15T12:25:06;3.60;;;3.50;;
13441;SDS011;6793;55.662;13.114;2024-01-15T12:27:33;3.63;;;3.53;;
13441;SDS011;6793;55.662;13.114;2024-01-15T12:30:01;3.47;;;3.37;;
13441;SDS011;6793;55.662;13.114;2024-01-15T12:32:28;3.60;;;3.50;;
13441;SDS011;6793;55.662;13.114;2024-01-15T12:34:55;3.37;;;3.27;;
13441;SDS011;6793;55.662;13.114;2024-01-15T12:37:22;3.50;;;3.40;;
13441;SDS011;6793;55.662;13.114;2024-01-15T12:39:52;3.40;;;3.30;;
13441;SDS011;6793;55.662;13.114;2024-01-15T12:42:21;3.50;;;3.40;;
13441;SDS011;6793;55.662;13.114;2024-01-15T12:44:48;3.43;;;3.33;;
13441;SDS011;6793;55.662;13.114;2024-01-15T12:47:15;3.50;;;3.40;;
13441;SDS011;6793;55.662;13.114;2024-01-15T12:49:46;3.50;;;3.40;;
13441;SDS011;6793;55.662;13.114;2024-01-15T12:52:15;3.63;;;3.53;;
13441;SDS011;6793;55.662;13.114;2024-01-15T12:54:42;3.37;;;3.27;;
13441;SDS011;6793;55.662;13.114;2024-01-15T12:57:10;3.40;;;3.30;;
13441;SDS011;6793;55.662;13.114;2024-01-15T12:59:37;3.43;;;3.33;;
13441;SDS011;6793;55.662;13.114;2024-01-15T13:02:05;3.37;;;3.27;;
13441;SDS011;6793;55.662;13.114;2024-01-15T13:04:32;3.50;;;3.40;;
13441;SDS011;6793;55.662;13.114;2024-01-15T13:06:59;3.60;;;3.50;;
13441;SDS011;6793;55.662;13.114;2024-01-15T13:09:26;3.60;;;3.50;;
13441;SDS011;6793;55.662;13.114;2024-01-15T13:11:54;3.80;;;3.70;;
13441;SDS011;6793;55.662;13.114;2024-01-15T13:14:23;3.70;;;3.60;;
13441;SDS011;6793;55.662;13.114;2024-01-15T13:16:51;3.37;;;3.27;;
13441;SDS011;6793;55.662;13.114;2024-01-15T13:19:18;3.73;;;3.63;;
13441;SDS011;6793;55.662;13.114;2024-01-15T13:21:46;3.67;;;3.57;;
13441;SDS011;6793;55.662;13.114;2024-01-15T13:24:15;3.70;;;3.60;;
13441;SDS011;6793;55.662;13.114;2024-01-15T13:26:42;3.70;;;3.60;;
13441;SDS011;6793;55.662;13.114;2024-01-15T13:29:09;3.90;;;3.80;;
13441;SDS011;6793;55.662;13.114;2024-01-15T13:31:37;4.07;;;3.97;;
13441;SDS011;6793;55.662;13.114;2024-01-15T13:34:04;3.80;;;3.70;;
13441;SDS011;6793;55.662;13.114;2024-01-15T13:36:32;3.80;;;3.70;;
13441;SDS011;6793;55.662;13.114;2024-01-15T13:38:59;3.80;;;3.70;;
13441;SDS011;6793;55.662;13.114;2024-01-15T13:41:26;3.83;;;3.73;;
13441;SDS011;6793;55.662;13.114;2024-01-15T13:43:54;4.00;;;3.90;;
13441;SDS011;6793;55.662;13.114;2024-01-15T13:46:23;3.90;;;3.80;;
13441;SDS011;6793;55.662;13.114;2024-01-15T13:48:52;3.70;;;3.60;;
13441;SDS011;6793;55.662;13.114;2024-01-15T13:51:21;3.60;;;3.50;;
13441;SDS011;6793;55.662;13.114;2024-01-15T13:53:48;3.80;;;3.70;;
13441;SDS011;6793;55.662;13.114;2024-01-15T13:56:15;3.80;;;3.70;;
13441;SDS011;6793;55.662;13.114;2024-01-15T13:58:42;3.70;;;3.60;;
13441;SDS011;6793;55.662;13.114;2024-01-15T14:01:09;3.90;;;3.80;;
13441;SDS011;6793;55.662;13.114;2024-01-15T14:03:36;3.90;;;3.80;;
13441;SDS011;6793;55.662;13.114;2024-01-15T14:06:05;3.90;;;3.80;;
13441;SDS011;6793;55.662;13.114;2024-01-15T14:08:33;3.83;;;3.73;;
13441;SDS011;6793;55.662;13.114;2024-01-15T14:11:01;3.90;;;3.80;;
13441;SDS011;6793;55.662;13.114;2024-01-15T14:13:28;3.73;;;3.63;;
13441;SDS011;6793;55.662;13.114;2024-01-15T14:15:55;3.90;;;3.80;;
13441;SDS011;6793;55.662;13.114;2024-01-15T14:18:22;4.00;;;3.90;;
13441;SDS011;6793;55.662;13.114;2024-01-15T14:20:49;4.00;;;3.90;;
13441;SDS011;6793;55.662;13.114;2024-01-15T14:23:18;4.10;;;4.00;;
13441;SDS011;6793;55.662;13.114;2024-01-15T14:25:45;3.97;;;3.87;;
13441;SDS011;6793;55.662;13.114;2024-01-15T14:28:12;4.00;;;3.90;;
13441;SDS011;6793;55.662;13.114;2024-01-15T14:30:39;4.23;;;4.13;;
13441;SDS011;6793;55.662;13.114;2024-01-15T14:33:06;4.20;;;4.10;;
13441;SDS011;6793;55.662;13.114;2024-01-15T14:35:33;4.20;;;4.10;;
13441;SDS011;6793;55.662;13.114;2024-01-15T14:38:00;3.90;;;3.80;;
13441;SDS011;6793;55.662;13.114;2024-01-15T14:40:28;4.20;;;4.10;;
13441;SDS011;6793;55.662;13.114;2024-01-15T14:42:55;4.00;;;3.90;;
13441;SDS011;6793;55.662;13.114;2024-01-15T14:45:22;4.00;;;3.90;;
13441;SDS011;6793;55.662;13.114;2024-01-15T14:47:52;4.40;;;4.30;;
13441;SDS011;6793;55.662;13.114;2024-01-15T14:50:19;4.20;;;4.10;;
13441;SDS011;6793;55.662;13.114;2024-01-15T14:52:46;4.40;;;4.30;;
13441;SDS011;6793;55.662;13.114;2024-01-15T14:55:13;4.50;;;4.40;;